sensor_id;sensor_type;location;lat;lon;timestamp;P1;durP1;ratioP1;P2;durP2;ratioP2
60225;SDS011;46090;48.436;11.410;2022-11-27T00:00:15;3.47;;;0.68;;
60225;SDS011;46090;48.436;11.410;2022-11-27T00:02:42;3.53;;;0.77;;
60225;SDS011;46090;48.436;11.410;2022-11-27T00:05:09;3.72;;;0.77;;
60225;SDS011;46090;48.436;11.410;2022-11-27T00:07:35;3.70;;;0.80;;
60225;SDS011;46090;48.436;11.410;2022-11-27T00:10:04;3.25;;;0.52;;
60225;SDS011;46090;48.436;11.410;2022-11-27T00:12:32;2.67;;;0.60;;
60225;SDS011;46090;48.436;11.410;2022-11-27T00:15:00;2.63;;;0.60;;
60225;SDS011;46090;48.436;11.410;2022-11-27T00:17:28;3.35;;;0.77;;
60225;SDS011;46090;48.436;11.410;2022-11-27T00:19:54;2.42;;;0.60;;
60225;SDS011;46090;48.436;11.410;2022-11-27T00:22:21;3.88;;;0.60;;
60225;SDS011;46090;48.436;11.410;2022-11-27T00:24:48;3.15;;;0.50;;
60225;SDS011;46090;48.436;11.410;2022-11-27T00:27:15;2.45;;;0.60;;
60225;SDS011;46090;48.436;11.410;2022-11-27T00:29:41;2.47;;;0.60;;
60225;SDS011;46090;48.436;11.410;2022-11-27T00:32:09;2.40;;;0.40;;
60225;SDS011;46090;48.436;11.410;2022-11-27T00:34:35;1.48;;;0.38;;
60225;SDS011;46090;48.436;11.410;2022-11-27T00:37:03;2.53;;;0.50;;
60225;SDS011;46090;48.436;11.410;2022-11-27T00:39:29;4.13;;;0.85;;
60225;SDS011;46090;48.436;11.410;2022-11-27T00:41:56;1.90;;;0.50;;
60225;SDS011;46090;48.436;11.410;2022-11-27T00:44:24;3.78;;;0.40;;
60225;SDS011;46090;48.436;11.410;2022-11-27T00:46:50;3.20;;;0.52;;
60225;SDS011;46090;48.436;11.410;2022-11-27T00:49:17;2.50;;;0.60;;
60225;SDS011;46090;48.436;11.410;2022-11-27T00:51:44;3.15;;;0.60;;
60225;SDS011;46090;48.436;11.410;2022-11-27T00:54:11;1.92;;;0.45;;
60225;SDS011;46090;48.436;11.410;2022-11-27T00:56:38;2.42;;;0.60;;
60225;SDS011;46090;48.436;11.410;2022-11-27T00:59:05;1.70;;;0.40;;
60225;SDS011;46090;48.436;11.410;2022-11-27T01:01:34;3.45;;;0.60;;
60225;SDS011;46090;48.436;11.410;2022-11-27T01:04:03;2.05;;;0.50;;
60225;SDS011;46090;48.436;11.410;2022-11-27T01:06:31;4.38;;;0.60;;
60225;SDS011;46090;48.436;11.410;2022-11-27T01:08:58;3.50;;;0.60;;
60225;SDS011;46090;48.436;11.410;2022-11-27T01:11:29;2.30;;;0.40;;
60225;SDS011;46090;48.436;11.410;2022-11-27T01:14:01;3.13;;;0.50;;
60225;SDS011;46090;48.436;11.410;2022-11-27T01:16:30;3.20;;;0.50;;
60225;SDS011;46090;48.436;11.410;2022-11-27T01:18:58;3.03;;;0.50;;
60225;SDS011;46090;48.436;11.410;2022-11-27T01:21:27;3.92;;;0.60;;
60225;SDS011;46090;48.436;11.410;2022-11-27T01:23:55;3.13;;;1.00;;
60225;SDS011;46090;48.436;11.410;2022-11-27T01:26:22;4.05;;;0.38;;
60225;SDS011;46090;48.436;11.410;2022-11-27T01:28:52;1.95;;;0.40;;
60225;SDS011;46090;48.436;11.410;2022-11-27T01:31:21;2.78;;;0.60;;
60225;SDS011;46090;48.436;11.410;2022-11-27T01:33:53;2.60;;;0.40;;
60225;SDS011;46090;48.436;11.410;2022-11-27T01:36:22;3.80;;;0.60;;
60225;SDS011;46090;48.436;11.410;2022-11-27T01:38:48;3.80;;;0.60;;
60225;SDS011;46090;48.436;11.410;2022-11-27T01:41:17;2.83;;;0.60;;
60225;SDS011;46090;48.436;11.410;2022-11-27T01:43:52;2.35;;;0.40;;
60225;SDS011;46090;48.436;11.410;2022-11-27T01:46:25;2.13;;;0.75;;
60225;SDS011;46090;48.436;11.410;2022-11-27T01:49:12;1.40;;;0.30;;
60225;SDS011;46090;48.436;11.410;2022-11-27T01:51:51;2.58;;;0.50;;
60225;SDS011;46090;48.436;11.410;2022-11-27T01:54:22;2.85;;;0.50;;
60225;SDS011;46090;48.436;11.410;2022-11-27T01:56:53;1.95;;;0.40;;
60225;SDS011;46090;48.436;11.410;2022-11-27T01:59:22;1.63;;;0.50;;
60225;SDS011;46090;48.436;11.410;2022-11-27T02:01:49;2.10;;;0.40;;
60225;SDS011;46090;48.436;11.410;2022-11-27T02:04:16;4.10;;;0.70;;
60225;SDS011;46090;48.436;11.410;2022-11-27T02:06:44;3.20;;;0.43;;
60225;SDS011;46090;48.436;11.410;2022-11-27T02:09:11;3.10;;;0.50;;
60225;SDS011;46090;48.436;11.410;2022-11-27T02:14:15;2.40;;;0.50;;
60225;SDS011;46090;48.436;11.410;2022-11-27T02:19:38;3.30;;;0.57;;
60225;SDS011;46090;48.436;11.410;2022-11-27T02:25:05;2.00;;;0.47;;
60225;SDS011;46090;48.436;11.410;2022-11-27T02:30:20;2.88;;;0.35;;
60225;SDS011;46090;48.436;11.410;2022-11-27T02:35:37;2.75;;;0.75;;
60225;SDS011;46090;48.436;11.410;2022-11-27T02:38:07;1.63;;;0.40;;
60225;SDS011;46090;48.436;11.410;2022-11-27T02:40:50;2.60;;;0.50;;
60225;SDS011;46090;48.436;11.410;2022-11-27T02:43:28;2.83;;;0.30;;
60225;SDS011;46090;48.436;11.410;2022-11-27T02:45:58;1.77;;;0.32;;
60225;SDS011;46090;48.436;11.410;2022-11-27T02:48:28;2.58;;;0.40;;
60225;SDS011;46090;48.436;11.410;2022-11-27T02:50:56;1.90;;;0.50;;
60225;SDS011;46090;48.436;11.410;2022-11-27T02:53:25;1.67;;;0.40;;
60225;SDS011;46090;48.436;11.410;2022-11-27T02:55:57;2.53;;;0.30;;
60225;SDS011;46090;48.436;11.410;2022-11-27T02:58:25;2.00;;;0.40;;
60225;SDS011;46090;48.436;11.410;2022-11-27T03:00:53;1.85;;;0.35;;
60225;SDS011;46090;48.436;11.410;2022-11-27T03:03:23;1.55;;;0.52;;
60225;SDS011;46090;48.436;11.410;2022-11-27T03:05:53;3.00;;;0.40;;
60225;SDS011;46090;48.436;11.410;2022-11-27T03:08:34;4.28;;;0.65;;
60225;SDS011;46090;48.436;11.410;2022-11-27T03:11:05;2.60;;;0.30;;
60225;SDS011;46090;48.436;11.410;2022-11-27T03:13:34;3.65;;;0.55;;
60225;SDS011;46090;48.436;11.410;2022-11-27T03:16:11;2.47;;;0.30;;
60225;SDS011;46090;48.436;11.410;2022-11-27T03:18:45;2.53;;;0.63;;
60225;SDS011;46090;48.436;11.410;2022-11-27T03:21:32;1.65;;;0.32;;
60225;SDS011;46090;48.436;11.410;2022-11-27T03:24:00;2.15;;;0.40;;
60225;SDS011;46090;48.436;11.410;2022-11-27T03:26:27;3.65;;;0.57;;
60225;SDS011;46090;48.436;11.410;2022-11-27T03:28:55;2.20;;;0.50;;
60225;SDS011;46090;48.436;11.410;2022-11-27T03:31:23;4.40;;;0.63;;
60225;SDS011;46090;48.436;11.410;2022-11-27T03:33:50;1.75;;;0.40;;
60225;SDS011;46090;48.436;11.410;2022-11-27T03:36:19;3.28;;;0.40;;
60225;SDS011;46090;48.436;11.410;2022-11-27T03:38:46;2.55;;;0.57;;
60225;SDS011;46090;48.436;11.410;2022-11-27T03:41:20;2.00;;;0.32;;
60225;SDS011;46090;48.436;11.410;2022-11-27T03:46:41;2.20;;;0.40;;
60225;SDS011;46090;48.436;11.410;2022-11-27T03:58:10;3.03;;;0.50;;
60225;SDS011;46090;48.436;11.410;2022-11-27T04:00:42;1.73;;;0.30;;
60225;SDS011;46090;48.436;11.410;2022-11-27T04:03:10;1.88;;;0.43;;
60225;SDS011;46090;48.436;11.410;2022-11-27T04:05:37;1.10;;;0.30;;
60225;SDS011;46090;48.436;11.410;2022-11-27T04:08:04;2.00;;;0.43;;
60225;SDS011;46090;48.436;11.410;2022-11-27T04:10:31;1.17;;;0.20;;
60225;SDS011;46090;48.436;11.410;2022-11-27T04:12:57;1.38;;;0.40;;
60225;SDS011;46090;48.436;11.410;2022-11-27T04:15:24;1.75;;;0.40;;
60225;SDS011;46090;48.436;11.410;2022-11-27T04:17:50;2.53;;;0.30;;
60225;SDS011;46090;48.436;11.410;2022-11-27T04:20:17;3.03;;;0.30;;
60225;SDS011;46090;48.436;11.410;2022-11-27T04:22:44;1.15;;;0.40;;
60225;SDS011;46090;48.436;11.410;2022-11-27T04:25:10;2.25;;;0.40;;
60225;SDS011;46090;48.436;11.410;2022-11-27T04:27:37;1.88;;;0.30;;
60225;SDS011;46090;48.436;11.410;2022-11-27T04:30:04;1.73;;;0.50;;
60225;SDS011;46090;48.436;11.410;2022-11-27T04:32:31;1.92;;;0.40;;
60225;SDS011;46090;48.436;11.410;2022-11-27T04:34:58;1.40;;;0.35;;
60225;SDS011;46090;48.436;11.410;2022-11-27T04:37:24;1.48;;;0.40;;
60225;SDS011;46090;48.436;11.410;2022-11-27T04:39:51;2.38;;;0.50;;
60225;SDS011;46090;48.436;11.410;2022-11-27T04:42:18;1.77;;;0.30;;
60225;SDS011;46090;48.436;11.410;2022-11-27T04:44:44;1.75;;;0.30;;
60225;SDS011;46090;48.436;11.410;2022-11-27T04:47:11;0.90;;;0.38;;
60225;SDS011;46090;48.436;11.410;2022-11-27T04:49:37;3.15;;;0.38;;
60225;SDS011;46090;48.436;11.410;2022-11-27T04:52:04;1.35;;;0.30;;
60225;SDS011;46090;48.436;11.410;2022-11-27T04:54:31;1.58;;;0.32;;
60225;SDS011;46090;48.436;11.410;2022-11-27T04:56:57;1.30;;;0.30;;
60225;SDS011;46090;48.436;11.410;2022-11-27T04:59:24;2.05;;;0.32;;
60225;SDS011;46090;48.436;11.410;2022-11-27T05:01:50;3.95;;;0.40;;
60225;SDS011;46090;48.436;11.410;2022-11-27T05:04:17;2.30;;;0.30;;
60225;SDS011;46090;48.436;11.410;2022-11-27T05:06:44;1.58;;;0.20;;
60225;SDS011;46090;48.436;11.410;2022-11-27T05:09:11;1.40;;;0.38;;
60225;SDS011;46090;48.436;11.410;2022-11-27T05:11:38;1.60;;;0.30;;
60225;SDS011;46090;48.436;11.410;2022-11-27T05:14:05;4.18;;;0.55;;
60225;SDS011;46090;48.436;11.410;2022-11-27T05:16:40;3.05;;;0.63;;
60225;SDS011;46090;48.436;11.410;2022-11-27T05:19:12;2.17;;;0.30;;
60225;SDS011;46090;48.436;11.410;2022-11-27T05:21:40;2.78;;;0.30;;
60225;SDS011;46090;48.436;11.410;2022-11-27T05:24:07;2.65;;;0.40;;
60225;SDS011;46090;48.436;11.410;2022-11-27T05:26:35;2.08;;;0.40;;
60225;SDS011;46090;48.436;11.410;2022-11-27T05:29:02;3.00;;;0.43;;
60225;SDS011;46090;48.436;11.410;2022-11-27T05:31:29;7.38;;;0.55;;
60225;SDS011;46090;48.436;11.410;2022-11-27T05:33:56;2.40;;;0.50;;
60225;SDS011;46090;48.436;11.410;2022-11-27T05:36:23;3.10;;;0.57;;
60225;SDS011;46090;48.436;11.410;2022-11-27T05:38:50;3.08;;;0.70;;
60225;SDS011;46090;48.436;11.410;2022-11-27T05:41:17;4.55;;;1.50;;
60225;SDS011;46090;48.436;11.410;2022-11-27T05:43:44;8.02;;;2.70;;
60225;SDS011;46090;48.436;11.410;2022-11-27T05:46:12;6.53;;;2.97;;
60225;SDS011;46090;48.436;11.410;2022-11-27T05:48:40;7.90;;;3.92;;
60225;SDS011;46090;48.436;11.410;2022-11-27T05:51:07;7.85;;;3.45;;
60225;SDS011;46090;48.436;11.410;2022-11-27T05:53:35;6.60;;;3.50;;
60225;SDS011;46090;48.436;11.410;2022-11-27T05:56:09;11.32;;;4.55;;
60225;SDS011;46090;48.436;11.410;2022-11-27T05:58:37;6.70;;;4.30;;
60225;SDS011;46090;48.436;11.410;2022-11-27T06:01:05;7.47;;;3.65;;
60225;SDS011;46090;48.436;11.410;2022-11-27T06:03:33;7.22;;;3.58;;
60225;SDS011;46090;48.436;11.410;2022-11-27T06:06:07;7.85;;;3.25;;
60225;SDS011;46090;48.436;11.410;2022-11-27T06:08:35;6.55;;;3.70;;
60225;SDS011;46090;48.436;11.410;2022-11-27T06:11:06;6.80;;;3.92;;
60225;SDS011;46090;48.436;11.410;2022-11-27T06:13:37;7.05;;;2.70;;
60225;SDS011;46090;48.436;11.410;2022-11-27T06:16:07;15.20;;;11.75;;
60225;SDS011;46090;48.436;11.410;2022-11-27T06:18:36;11.93;;;7.25;;
60225;SDS011;46090;48.436;11.410;2022-11-27T06:21:07;12.13;;;8.02;;
60225;SDS011;46090;48.436;11.410;2022-11-27T06:23:34;10.98;;;7.93;;
60225;SDS011;46090;48.436;11.410;2022-11-27T06:26:17;10.13;;;7.53;;
60225;SDS011;46090;48.436;11.410;2022-11-27T06:28:46;11.55;;;6.90;;
60225;SDS011;46090;48.436;11.410;2022-11-27T06:31:14;9.30;;;6.13;;
60225;SDS011;46090;48.436;11.410;2022-11-27T06:33:47;9.98;;;6.03;;
60225;SDS011;46090;48.436;11.410;2022-11-27T06:36:15;9.68;;;5.97;;
60225;SDS011;46090;48.436;11.410;2022-11-27T06:38:42;10.15;;;5.40;;
60225;SDS011;46090;48.436;11.410;2022-11-27T06:41:14;7.05;;;5.13;;
60225;SDS011;46090;48.436;11.410;2022-11-27T06:43:42;10.55;;;5.10;;
60225;SDS011;46090;48.436;11.410;2022-11-27T06:46:11;11.30;;;4.93;;
60225;SDS011;46090;48.436;11.410;2022-11-27T06:48:39;10.52;;;5.32;;
60225;SDS011;46090;48.436;11.410;2022-11-27T06:51:07;9.02;;;4.30;;
60225;SDS011;46090;48.436;11.410;2022-11-27T06:53:34;10.05;;;4.68;;
60225;SDS011;46090;48.436;11.410;2022-11-27T06:56:05;10.32;;;4.03;;
60225;SDS011;46090;48.436;11.410;2022-11-27T06:58:34;9.30;;;4.65;;
60225;SDS011;46090;48.436;11.410;2022-11-27T07:01:02;7.05;;;3.97;;
60225;SDS011;46090;48.436;11.410;2022-11-27T07:03:30;8.43;;;4.40;;
60225;SDS011;46090;48.436;11.410;2022-11-27T07:06:01;7.82;;;4.35;;
60225;SDS011;46090;48.436;11.410;2022-11-27T07:08:29;10.63;;;3.85;;
60225;SDS011;46090;48.436;11.410;2022-11-27T07:11:02;9.65;;;3.88;;
60225;SDS011;46090;48.436;11.410;2022-11-27T07:13:32;10.15;;;3.60;;
60225;SDS011;46090;48.436;11.410;2022-11-27T07:16:03;8.55;;;3.08;;
60225;SDS011;46090;48.436;11.410;2022-11-27T07:18:35;6.28;;;3.10;;
60225;SDS011;46090;48.436;11.410;2022-11-27T07:21:03;6.45;;;3.20;;
60225;SDS011;46090;48.436;11.410;2022-11-27T07:23:30;6.45;;;3.17;;
60225;SDS011;46090;48.436;11.410;2022-11-27T07:25:57;7.57;;;3.47;;
60225;SDS011;46090;48.436;11.410;2022-11-27T07:28:24;7.60;;;3.13;;
60225;SDS011;46090;48.436;11.410;2022-11-27T07:30:55;8.13;;;3.20;;
60225;SDS011;46090;48.436;11.410;2022-11-27T07:33:23;9.30;;;3.15;;
60225;SDS011;46090;48.436;11.410;2022-11-27T07:35:56;6.70;;;2.80;;
60225;SDS011;46090;48.436;11.410;2022-11-27T07:38:30;7.80;;;2.80;;
60225;SDS011;46090;48.436;11.410;2022-11-27T07:41:00;5.53;;;2.33;;
60225;SDS011;46090;48.436;11.410;2022-11-27T07:43:28;7.07;;;2.60;;
60225;SDS011;46090;48.436;11.410;2022-11-27T07:45:55;172.95;;;16.77;;
60225;SDS011;46090;48.436;11.410;2022-11-27T07:48:23;6.22;;;3.22;;
60225;SDS011;46090;48.436;11.410;2022-11-27T07:50:50;9.48;;;3.33;;
60225;SDS011;46090;48.436;11.410;2022-11-27T07:53:17;6.70;;;2.45;;
60225;SDS011;46090;48.436;11.410;2022-11-27T07:55:44;5.68;;;1.95;;
60225;SDS011;46090;48.436;11.410;2022-11-27T07:58:10;8.98;;;2.53;;
60225;SDS011;46090;48.436;11.410;2022-11-27T08:00:37;6.25;;;2.10;;
60225;SDS011;46090;48.436;11.410;2022-11-27T08:03:05;4.57;;;2.05;;
60225;SDS011;46090;48.436;11.410;2022-11-27T08:05:35;5.00;;;2.25;;
60225;SDS011;46090;48.436;11.410;2022-11-27T08:08:03;8.88;;;2.33;;
60225;SDS011;46090;48.436;11.410;2022-11-27T08:10:34;5.45;;;2.00;;
60225;SDS011;46090;48.436;11.410;2022-11-27T08:13:01;6.32;;;1.92;;
60225;SDS011;46090;48.436;11.410;2022-11-27T08:15:28;5.68;;;1.70;;
60225;SDS011;46090;48.436;11.410;2022-11-27T08:17:55;5.68;;;1.65;;
60225;SDS011;46090;48.436;11.410;2022-11-27T08:20:21;19.23;;;3.60;;
60225;SDS011;46090;48.436;11.410;2022-11-27T08:22:48;10.70;;;2.53;;
60225;SDS011;46090;48.436;11.410;2022-11-27T08:25:15;10.07;;;2.00;;
60225;SDS011;46090;48.436;11.410;2022-11-27T08:27:43;9.23;;;2.05;;
60225;SDS011;46090;48.436;11.410;2022-11-27T08:30:11;6.93;;;1.88;;
60225;SDS011;46090;48.436;11.410;2022-11-27T08:32:38;8.00;;;1.92;;
60225;SDS011;46090;48.436;11.410;2022-11-27T08:35:06;8.10;;;1.48;;
60225;SDS011;46090;48.436;11.410;2022-11-27T08:37:33;8.95;;;1.75;;
60225;SDS011;46090;48.436;11.410;2022-11-27T08:40:01;7.63;;;1.65;;
60225;SDS011;46090;48.436;11.410;2022-11-27T08:42:29;6.88;;;1.95;;
60225;SDS011;46090;48.436;11.410;2022-11-27T08:44:55;5.90;;;1.80;;
60225;SDS011;46090;48.436;11.410;2022-11-27T08:47:22;7.60;;;2.08;;
60225;SDS011;46090;48.436;11.410;2022-11-27T08:49:49;4.93;;;1.40;;
60225;SDS011;46090;48.436;11.410;2022-11-27T08:52:15;8.38;;;1.77;;
60225;SDS011;46090;48.436;11.410;2022-11-27T08:54:42;8.50;;;1.42;;
60225;SDS011;46090;48.436;11.410;2022-11-27T08:57:09;5.60;;;1.27;;
60225;SDS011;46090;48.436;11.410;2022-11-27T08:59:35;7.35;;;1.23;;
60225;SDS011;46090;48.436;11.410;2022-11-27T09:02:02;10.25;;;1.67;;
60225;SDS011;46090;48.436;11.410;2022-11-27T09:04:31;7.85;;;1.30;;
60225;SDS011;46090;48.436;11.410;2022-11-27T09:06:58;10.23;;;2.25;;
60225;SDS011;46090;48.436;11.410;2022-11-27T09:09:25;11.75;;;1.65;;
60225;SDS011;46090;48.436;11.410;2022-11-27T09:11:55;10.70;;;1.50;;
60225;SDS011;46090;48.436;11.410;2022-11-27T09:14:21;7.43;;;1.38;;
60225;SDS011;46090;48.436;11.410;2022-11-27T09:16:48;6.03;;;1.80;;
60225;SDS011;46090;48.436;11.410;2022-11-27T09:19:15;8.70;;;1.65;;
60225;SDS011;46090;48.436;11.410;2022-11-27T09:21:42;11.75;;;1.38;;
60225;SDS011;46090;48.436;11.410;2022-11-27T09:24:09;11.93;;;1.92;;
60225;SDS011;46090;48.436;11.410;2022-11-27T09:26:36;8.75;;;1.83;;
60225;SDS011;46090;48.436;11.410;2022-11-27T09:29:05;7.85;;;1.35;;
60225;SDS011;46090;48.436;11.410;2022-11-27T09:31:32;7.93;;;1.75;;
60225;SDS011;46090;48.436;11.410;2022-11-27T09:33:59;12.20;;;2.08;;
60225;SDS011;46090;48.436;11.410;2022-11-27T09:36:26;9.75;;;1.58;;
60225;SDS011;46090;48.436;11.410;2022-11-27T09:38:53;13.15;;;1.40;;
60225;SDS011;46090;48.436;11.410;2022-11-27T09:42:03;8.35;;;1.35;;
60225;SDS011;46090;48.436;11.410;2022-11-27T09:46:55;5.28;;;1.33;;
60225;SDS011;46090;48.436;11.410;2022-11-27T09:49:24;6.20;;;1.70;;
60225;SDS011;46090;48.436;11.410;2022-11-27T09:51:59;6.68;;;1.23;;
60225;SDS011;46090;48.436;11.410;2022-11-27T09:54:36;5.82;;;1.30;;
60225;SDS011;46090;48.436;11.410;2022-11-27T09:57:05;6.25;;;1.33;;
60225;SDS011;46090;48.436;11.410;2022-11-27T09:59:40;5.95;;;1.08;;
60225;SDS011;46090;48.436;11.410;2022-11-27T10:02:16;7.65;;;1.45;;
60225;SDS011;46090;48.436;11.410;2022-11-27T10:05:05;4.82;;;1.20;;
60225;SDS011;46090;48.436;11.410;2022-11-27T10:07:52;4.75;;;0.90;;
60225;SDS011;46090;48.436;11.410;2022-11-27T10:10:53;7.32;;;1.52;;
60225;SDS011;46090;48.436;11.410;2022-11-27T10:16:43;5.93;;;1.20;;
60225;SDS011;46090;48.436;11.410;2022-11-27T10:24:36;8.90;;;1.00;;
60225;SDS011;46090;48.436;11.410;2022-11-27T10:27:16;5.82;;;1.52;;
60225;SDS011;46090;48.436;11.410;2022-11-27T10:29:52;5.63;;;1.23;;
60225;SDS011;46090;48.436;11.410;2022-11-27T10:32:22;4.22;;;1.00;;
60225;SDS011;46090;48.436;11.410;2022-11-27T10:35:12;4.13;;;1.00;;
60225;SDS011;46090;48.436;11.410;2022-11-27T10:43:01;4.15;;;0.75;;
60225;SDS011;46090;48.436;11.410;2022-11-27T10:45:36;4.60;;;0.90;;
60225;SDS011;46090;48.436;11.410;2022-11-27T10:48:05;3.22;;;0.90;;
60225;SDS011;46090;48.436;11.410;2022-11-27T10:50:32;5.53;;;1.00;;
60225;SDS011;46090;48.436;11.410;2022-11-27T10:53:01;4.85;;;0.95;;
60225;SDS011;46090;48.436;11.410;2022-11-27T11:01:02;3.92;;;0.75;;
60225;SDS011;46090;48.436;11.410;2022-11-27T11:03:30;6.53;;;1.52;;
60225;SDS011;46090;48.436;11.410;2022-11-27T11:05:58;6.78;;;1.20;;
60225;SDS011;46090;48.436;11.410;2022-11-27T11:08:46;6.90;;;1.70;;
60225;SDS011;46090;48.436;11.410;2022-11-27T11:11:23;8.45;;;1.48;;
60225;SDS011;46090;48.436;11.410;2022-11-27T11:13:51;8.70;;;1.77;;
60225;SDS011;46090;48.436;11.410;2022-11-27T11:16:20;7.70;;;1.60;;
60225;SDS011;46090;48.436;11.410;2022-11-27T11:18:52;8.07;;;1.90;;
60225;SDS011;46090;48.436;11.410;2022-11-27T11:21:25;10.20;;;1.98;;
60225;SDS011;46090;48.436;11.410;2022-11-27T11:26:31;6.50;;;1.75;;
60225;SDS011;46090;48.436;11.410;2022-11-27T11:29:01;8.02;;;1.98;;
60225;SDS011;46090;48.436;11.410;2022-11-27T11:31:32;5.15;;;1.75;;
60225;SDS011;46090;48.436;11.410;2022-11-27T11:34:03;6.63;;;2.08;;
60225;SDS011;46090;48.436;11.410;2022-11-27T11:36:33;8.23;;;1.58;;
60225;SDS011;46090;48.436;11.410;2022-11-27T11:39:00;8.32;;;2.05;;
60225;SDS011;46090;48.436;11.410;2022-11-27T11:41:35;10.27;;;2.17;;
60225;SDS011;46090;48.436;11.410;2022-11-27T11:44:02;4.97;;;1.60;;
60225;SDS011;46090;48.436;11.410;2022-11-27T11:46:31;6.95;;;2.00;;
60225;SDS011;46090;48.436;11.410;2022-11-27T11:57:29;5.90;;;1.75;;
60225;SDS011;46090;48.436;11.410;2022-11-27T12:00:12;6.65;;;1.75;;
60225;SDS011;46090;48.436;11.410;2022-11-27T12:11:21;7.18;;;1.85;;
60225;SDS011;46090;48.436;11.410;2022-11-27T12:22:27;6.82;;;1.38;;
60225;SDS011;46090;48.436;11.410;2022-11-27T12:25:29;5.05;;;1.10;;
60225;SDS011;46090;48.436;11.410;2022-11-27T12:41:43;7.18;;;1.67;;
60225;SDS011;46090;48.436;11.410;2022-11-27T12:44:16;9.05;;;1.90;;
60225;SDS011;46090;48.436;11.410;2022-11-27T12:46:57;6.93;;;1.30;;
60225;SDS011;46090;48.436;11.410;2022-11-27T12:49:30;5.72;;;1.40;;
60225;SDS011;46090;48.436;11.410;2022-11-27T12:52:19;7.15;;;1.55;;
60225;SDS011;46090;48.436;11.410;2022-11-27T12:54:50;8.38;;;1.48;;
60225;SDS011;46090;48.436;11.410;2022-11-27T12:57:35;8.50;;;1.63;;
60225;SDS011;46090;48.436;11.410;2022-11-27T13:00:21;9.77;;;1.45;;
60225;SDS011;46090;48.436;11.410;2022-11-27T13:02:55;10.65;;;2.25;;
60225;SDS011;46090;48.436;11.410;2022-11-27T13:05:29;9.90;;;4.15;;
60225;SDS011;46090;48.436;11.410;2022-11-27T13:08:00;7.95;;;3.22;;
60225;SDS011;46090;48.436;11.410;2022-11-27T13:10:34;9.32;;;2.95;;
60225;SDS011;46090;48.436;11.410;2022-11-27T13:13:06;8.32;;;2.47;;
60225;SDS011;46090;48.436;11.410;2022-11-27T13:15:43;9.07;;;2.78;;
60225;SDS011;46090;48.436;11.410;2022-11-27T13:21:09;8.00;;;2.13;;
60225;SDS011;46090;48.436;11.410;2022-11-27T13:23:39;8.98;;;2.20;;
60225;SDS011;46090;48.436;11.410;2022-11-27T13:31:57;7.60;;;2.22;;
60225;SDS011;46090;48.436;11.410;2022-11-27T13:34:26;6.97;;;2.40;;
60225;SDS011;46090;48.436;11.410;2022-11-27T13:36:58;8.32;;;3.20;;
60225;SDS011;46090;48.436;11.410;2022-11-27T13:41:58;15.32;;;2.97;;
60225;SDS011;46090;48.436;11.410;2022-11-27T13:44:28;6.68;;;2.13;;
60225;SDS011;46090;48.436;11.410;2022-11-27T13:46:57;9.25;;;2.63;;
60225;SDS011;46090;48.436;11.410;2022-11-27T13:49:32;7.03;;;1.95;;
60225;SDS011;46090;48.436;11.410;2022-11-27T13:52:24;6.15;;;2.30;;
60225;SDS011;46090;48.436;11.410;2022-11-27T13:54:57;11.27;;;2.28;;
60225;SDS011;46090;48.436;11.410;2022-11-27T13:57:25;8.88;;;2.10;;
60225;SDS011;46090;48.436;11.410;2022-11-27T14:00:14;6.97;;;2.25;;
60225;SDS011;46090;48.436;11.410;2022-11-27T14:02:48;6.65;;;1.88;;
60225;SDS011;46090;48.436;11.410;2022-11-27T14:05:20;8.10;;;1.90;;
60225;SDS011;46090;48.436;11.410;2022-11-27T14:07:58;7.70;;;2.05;;
60225;SDS011;46090;48.436;11.410;2022-11-27T14:10:27;5.60;;;1.90;;
60225;SDS011;46090;48.436;11.410;2022-11-27T14:13:00;6.30;;;1.88;;
60225;SDS011;46090;48.436;11.410;2022-11-27T14:15:29;6.22;;;1.88;;
60225;SDS011;46090;48.436;11.410;2022-11-27T14:18:04;6.97;;;1.90;;
60225;SDS011;46090;48.436;11.410;2022-11-27T14:20:52;6.10;;;1.95;;
60225;SDS011;46090;48.436;11.410;2022-11-27T14:23:26;6.97;;;2.50;;
60225;SDS011;46090;48.436;11.410;2022-11-27T14:28:41;7.72;;;2.30;;
60225;SDS011;46090;48.436;11.410;2022-11-27T14:31:24;6.55;;;2.22;;
60225;SDS011;46090;48.436;11.410;2022-11-27T14:33:55;7.47;;;2.60;;
60225;SDS011;46090;48.436;11.410;2022-11-27T14:36:42;6.28;;;2.33;;
60225;SDS011;46090;48.436;11.410;2022-11-27T14:39:19;7.72;;;2.58;;
60225;SDS011;46090;48.436;11.410;2022-11-27T14:41:54;11.00;;;3.10;;
60225;SDS011;46090;48.436;11.410;2022-11-27T14:44:31;9.35;;;2.05;;
60225;SDS011;46090;48.436;11.410;2022-11-27T14:46:59;6.20;;;2.42;;
60225;SDS011;46090;48.436;11.410;2022-11-27T14:49:28;7.38;;;2.60;;
60225;SDS011;46090;48.436;11.410;2022-11-27T14:51:57;8.07;;;2.33;;
60225;SDS011;46090;48.436;11.410;2022-11-27T14:54:27;6.45;;;2.45;;
60225;SDS011;46090;48.436;11.410;2022-11-27T14:56:57;6.32;;;2.40;;
60225;SDS011;46090;48.436;11.410;2022-11-27T14:59:24;6.35;;;2.42;;
60225;SDS011;46090;48.436;11.410;2022-11-27T15:04:59;8.05;;;2.42;;
60225;SDS011;46090;48.436;11.410;2022-11-27T15:07:28;7.32;;;2.70;;
60225;SDS011;46090;48.436;11.410;2022-11-27T15:09:57;9.13;;;2.45;;
60225;SDS011;46090;48.436;11.410;2022-11-27T15:12:31;7.15;;;2.30;;
60225;SDS011;46090;48.436;11.410;2022-11-27T15:15:03;4.35;;;1.73;;
60225;SDS011;46090;48.436;11.410;2022-11-27T15:17:32;7.82;;;2.13;;
60225;SDS011;46090;48.436;11.410;2022-11-27T15:20:01;5.90;;;2.05;;
60225;SDS011;46090;48.436;11.410;2022-11-27T15:22:31;5.78;;;1.90;;
60225;SDS011;46090;48.436;11.410;2022-11-27T15:24:59;7.40;;;2.40;;
60225;SDS011;46090;48.436;11.410;2022-11-27T15:27:31;7.13;;;2.33;;
60225;SDS011;46090;48.436;11.410;2022-11-27T15:29:59;8.30;;;2.35;;
60225;SDS011;46090;48.436;11.410;2022-11-27T15:32:33;7.45;;;2.30;;
60225;SDS011;46090;48.436;11.410;2022-11-27T15:35:21;8.43;;;2.08;;
60225;SDS011;46090;48.436;11.410;2022-11-27T15:37:56;5.75;;;1.90;;
60225;SDS011;46090;48.436;11.410;2022-11-27T15:40:28;5.80;;;2.00;;
60225;SDS011;46090;48.436;11.410;2022-11-27T15:42:57;6.30;;;2.22;;
60225;SDS011;46090;48.436;11.410;2022-11-27T15:45:30;6.00;;;1.95;;
60225;SDS011;46090;48.436;11.410;2022-11-27T15:47:58;6.20;;;2.20;;
60225;SDS011;46090;48.436;11.410;2022-11-27T15:50:25;6.03;;;1.92;;
60225;SDS011;46090;48.436;11.410;2022-11-27T15:52:53;6.72;;;2.25;;
60225;SDS011;46090;48.436;11.410;2022-11-27T15:55:20;5.75;;;1.85;;
60225;SDS011;46090;48.436;11.410;2022-11-27T15:57:48;9.50;;;2.20;;
60225;SDS011;46090;48.436;11.410;2022-11-27T16:00:15;7.45;;;1.92;;
60225;SDS011;46090;48.436;11.410;2022-11-27T16:02:42;7.18;;;2.28;;
60225;SDS011;46090;48.436;11.410;2022-11-27T16:05:09;5.75;;;1.85;;
60225;SDS011;46090;48.436;11.410;2022-11-27T16:07:36;7.88;;;2.40;;
60225;SDS011;46090;48.436;11.410;2022-11-27T16:10:03;6.38;;;2.25;;
60225;SDS011;46090;48.436;11.410;2022-11-27T16:12:32;5.00;;;1.83;;
60225;SDS011;46090;48.436;11.410;2022-11-27T16:14:59;8.85;;;2.67;;
60225;SDS011;46090;48.436;11.410;2022-11-27T16:17:25;6.72;;;1.85;;
60225;SDS011;46090;48.436;11.410;2022-11-27T16:19:52;5.55;;;1.88;;
60225;SDS011;46090;48.436;11.410;2022-11-27T16:22:20;7.45;;;2.17;;
60225;SDS011;46090;48.436;11.410;2022-11-27T16:24:47;4.90;;;1.65;;
60225;SDS011;46090;48.436;11.410;2022-11-27T16:27:14;6.32;;;1.90;;
60225;SDS011;46090;48.436;11.410;2022-11-27T16:29:41;6.43;;;1.90;;
60225;SDS011;46090;48.436;11.410;2022-11-27T16:32:08;4.85;;;1.77;;
60225;SDS011;46090;48.436;11.410;2022-11-27T16:34:35;6.63;;;1.95;;
60225;SDS011;46090;48.436;11.410;2022-11-27T16:37:03;7.97;;;1.85;;